This is the latest recevied weather packets stored in our database for station/object SQ6IUS-13. If no packets are shown the sender has not sent any weather packets the latest 10 day(s).
| Time | Temp. | Humidity | Pressure | Rain* | Wind** | Luminosity | Snow |
|---|---|---|---|---|---|---|---|
| 1788028764 | 15.56° C | 100% | 1015.6 hPa | - | - | - | - |
| 1788027865 | 16.11° C | 100% | 1015.5 hPa | - | - | - | - |
| 1788026966 | 17.22° C | 100% | 1015.3 hPa | - | - | - | - |
| 1788024272 | 21.11° C | 100% | 1015.1 hPa | - | - | - | - |
| 1788020672 | 26.67° C | 41% | 1015.1 hPa | - | - | - | - |
| 1788017076 | 27.78° C | 37% | 1015 hPa | - | - | - | - |
| 1788016177 | 27.78° C | 37% | 1015.1 hPa | - | - | - | - |
| 1788008086 | 25° C | 61% | 1015 hPa | - | - | - | - |
| 1788007188 | 28.89° C | 42% | 1014.9 hPa | - | - | - | - |
| 1788006289 | 27.78° C | 45% | 1014.7 hPa | - | - | - | - |
| 1788003591 | 26.11° C | 64% | 1014.9 hPa | - | - | - | - |
| 1788002692 | 25° C | 100% | 1015 hPa | - | - | - | - |
| 1788001794 | 25° C | 100% | 1014.9 hPa | - | - | - | - |
| 1788000894 | 22.78° C | 100% | 1015.1 hPa | - | - | - | - |
| 1787999994 | 23.89° C | 100% | 1014.9 hPa | - | - | - | - |
| 1787999095 | 26.67° C | 100% | 1014.8 hPa | - | - | - | - |
| 1787998196 | 23.89° C | 100% | 1014.7 hPa | - | - | - | - |
| 1787996398 | 20.56° C | 100% | 1015 hPa | - | - | - | - |
| 1787995498 | 21.11° C | 100% | 1015 hPa | - | - | - | - |
| 1787993700 | 22.22° C | 100% | 1014.7 hPa | - | - | - | - |
| 1787992801 | 21.11° C | 100% | 1014.6 hPa | - | - | - | - |
| 1787991902 | 21.11° C | 100% | 1014.7 hPa | - | - | - | - |
| 1787991003 | 20° C | 100% | 1014.6 hPa | - | - | - | - |
| 1787990104 | 20° C | 100% | 1014.5 hPa | - | - | - | - |
| 1787989205 | 19.44° C | 100% | 1014.3 hPa | - | - | - | - |
* Rain since midnight (hover to see other rain measurements)
** Current wind speed in m/s (hover to see current wind gust speed)